createdAt,value
2023-05-05T00:01:14.623Z,12.03
2023-05-05T00:03:43.531Z,11.95
2023-05-05T00:06:13.263Z,11.89
2023-05-05T00:08:41.544Z,12.05
2023-05-05T00:11:09.778Z,11.84
2023-05-05T00:13:38.028Z,11.38
2023-05-05T00:16:06.656Z,12.01
2023-05-05T00:18:35.151Z,11.94
2023-05-05T00:21:04.428Z,11.65
2023-05-05T00:23:34.159Z,11.66
2023-05-05T00:26:02.341Z,11.82
2023-05-05T00:28:31.352Z,11.75
2023-05-05T00:30:59.726Z,11.75
2023-05-05T00:33:28.016Z,11.80
2023-05-05T00:35:56.157Z,11.62
2023-05-05T00:38:24.373Z,11.51
2023-05-05T00:40:53.974Z,11.52
2023-05-05T00:43:22.241Z,11.45
2023-05-05T00:45:58.827Z,11.17
2023-05-05T00:48:27.116Z,11.22
2023-05-05T00:50:55.289Z,11.42
2023-05-05T00:53:23.912Z,11.42
2023-05-05T00:55:53.894Z,11.34
2023-05-05T00:58:22.280Z,11.40
2023-05-05T01:00:50.636Z,11.37
2023-05-05T01:03:18.838Z,11.23
2023-05-05T01:06:00.070Z,11.34
2023-05-05T01:08:45.136Z,11.28
2023-05-05T01:11:22.639Z,11.10
2023-05-05T01:14:02.811Z,11.02
2023-05-05T01:16:34.536Z,11.13
2023-05-05T01:19:30.300Z,11.15
2023-05-05T01:22:03.906Z,11.07
2023-05-05T01:24:45.350Z,11.02
2023-05-05T01:27:41.448Z,11.18
2023-05-05T01:30:29.881Z,11.19
2023-05-05T01:33:05.210Z,11.10
2023-05-05T01:35:39.084Z,11.01
2023-05-05T01:38:12.177Z,10.48
2023-05-05T01:40:44.607Z,11.01
2023-05-05T01:43:14.955Z,10.60
2023-05-05T01:45:46.145Z,11.03
2023-05-05T01:48:18.380Z,11.11
2023-05-05T01:50:48.105Z,11.05
2023-05-05T01:53:19.168Z,10.69
2023-05-05T01:55:48.955Z,10.94
2023-05-05T01:58:18.550Z,10.89
2023-05-05T02:00:48.285Z,10.83
2023-05-05T02:03:20.061Z,10.95
2023-05-05T02:05:49.682Z,10.87
2023-05-05T02:08:18.395Z,10.80
2023-05-05T02:10:46.838Z,10.79
2023-05-05T02:13:16.705Z,10.86
2023-05-05T02:15:46.211Z,10.87
2023-05-05T02:18:16.009Z,10.71
2023-05-05T02:20:46.913Z,10.90
2023-05-05T02:23:15.157Z,10.92
2023-05-05T02:25:47.012Z,10.94
2023-05-05T02:28:31.994Z,10.92
2023-05-05T02:31:01.681Z,10.71
2023-05-05T02:33:34.023Z,10.78
2023-05-05T02:36:10.239Z,10.50
2023-05-05T02:38:43.004Z,10.61
2023-05-05T02:41:15.046Z,10.58
2023-05-05T02:43:44.648Z,10.54
2023-05-05T02:46:13.031Z,10.33
2023-05-05T02:48:41.242Z,10.56
2023-05-05T02:51:10.740Z,10.47
2023-05-05T02:53:39.641Z,9.76
2023-05-05T02:56:16.264Z,10.38
2023-05-05T02:59:05.451Z,10.38
2023-05-05T03:01:41.843Z,10.23
2023-05-05T03:04:16.853Z,10.30
2023-05-05T03:06:50.219Z,10.31
2023-05-05T03:09:27.061Z,10.47
2023-05-05T03:12:00.986Z,10.34
2023-05-05T03:14:33.424Z,10.38
2023-05-05T03:17:02.692Z,10.14
2023-05-05T03:19:32.943Z,10.12
2023-05-05T03:22:04.862Z,10.07
2023-05-05T03:24:33.006Z,10.02
2023-05-05T03:27:01.650Z,9.53
2023-05-05T03:29:30.375Z,9.92
2023-05-05T03:31:59.471Z,9.77
2023-05-05T03:34:27.869Z,9.72
2023-05-05T03:36:56.375Z,10.05
2023-05-05T03:39:26.030Z,10.08
2023-05-05T03:41:54.202Z,10.02
2023-05-05T03:44:22.433Z,9.53
2023-05-05T03:46:50.639Z,9.93
2023-05-05T03:49:18.783Z,9.77
2023-05-05T03:51:47.430Z,9.95
2023-05-05T03:54:15.733Z,10.03
2023-05-05T03:56:45.372Z,9.94
2023-05-05T03:59:13.639Z,10.03
2023-05-05T04:01:41.814Z,10.04
2023-05-05T04:04:10.868Z,10.06
2023-05-05T04:06:39.022Z,9.90
2023-05-05T04:09:07.320Z,10.14
2023-05-05T04:11:35.424Z,10.15
2023-05-05T04:14:04.991Z,10.33
2023-05-05T04:16:33.114Z,10.44
2023-05-05T04:19:01.348Z,10.42
2023-05-05T04:21:29.516Z,10.66
2023-05-05T04:23:58.564Z,10.70
2023-05-05T04:26:27.873Z,10.78
2023-05-05T04:28:56.914Z,10.84
2023-05-05T04:31:26.516Z,10.91
2023-05-05T04:33:54.694Z,11.01
2023-05-05T04:36:22.830Z,11.14
2023-05-05T04:38:51.333Z,11.38
2023-05-05T04:41:19.485Z,11.21
2023-05-05T04:43:47.684Z,11.92
2023-05-05T04:46:15.821Z,12.30
2023-05-05T04:48:45.728Z,11.98
2023-05-05T04:51:13.962Z,12.65
2023-05-05T04:53:42.137Z,12.46
2023-05-05T04:56:10.338Z,12.52
2023-05-05T04:58:38.498Z,12.73
2023-05-05T05:01:06.739Z,12.76
2023-05-05T05:03:35.097Z,12.85
2023-05-05T05:06:05.031Z,12.76
2023-05-05T05:08:33.213Z,12.90
2023-05-05T05:11:01.432Z,12.88
2023-05-05T05:13:29.701Z,12.94
2023-05-05T05:15:57.892Z,12.88
2023-05-05T05:18:26.168Z,12.92
2023-05-05T05:20:54.365Z,13.03
2023-05-05T05:23:24.024Z,13.15
2023-05-05T05:25:52.197Z,13.21
2023-05-05T05:28:20.441Z,13.54
2023-05-05T05:30:48.672Z,13.65
2023-05-05T05:33:16.871Z,13.76
2023-05-05T05:35:45.062Z,13.81
2023-05-05T05:38:13.126Z,13.77
2023-05-05T05:40:42.911Z,13.89
2023-05-05T05:43:11.113Z,14.09
2023-05-05T05:45:39.325Z,14.29
2023-05-05T05:48:07.802Z,14.34
2023-05-05T05:50:36.539Z,14.52
2023-05-05T05:53:04.742Z,14.69
2023-05-05T05:55:32.875Z,14.92
2023-05-05T05:58:02.496Z,14.61
2023-05-05T06:00:30.763Z,15.11
2023-05-05T06:02:59.109Z,14.99
2023-05-05T06:05:27.293Z,14.90
2023-05-05T06:07:55.453Z,14.92
2023-05-05T06:10:28.003Z,14.82
2023-05-05T06:12:56.740Z,14.54
2023-05-05T06:15:26.634Z,15.02
2023-05-05T06:17:54.928Z,14.83
2023-05-05T06:20:23.164Z,14.86
2023-05-05T06:22:51.323Z,14.71
2023-05-05T06:25:19.456Z,14.38
2023-05-05T06:27:47.700Z,14.66
2023-05-05T06:30:16.061Z,14.76
2023-05-05T06:32:45.724Z,14.96
2023-05-05T06:35:13.948Z,15.30
2023-05-05T06:37:42.123Z,14.93
2023-05-05T06:40:11.665Z,15.33
2023-05-05T06:42:39.909Z,15.81
2023-05-05T06:45:09.273Z,15.93
2023-05-05T06:47:37.764Z,16.01
2023-05-05T06:50:09.398Z,16.05
2023-05-05T06:52:38.017Z,16.00
2023-05-05T06:55:06.916Z,16.03
2023-05-05T06:57:35.168Z,15.97
2023-05-05T07:00:05.906Z,16.41
2023-05-05T07:02:34.406Z,16.55
2023-05-05T07:05:02.641Z,16.60
2023-05-05T07:07:32.711Z,16.55
2023-05-05T07:10:01.107Z,16.74
2023-05-05T07:12:31.390Z,16.85
2023-05-05T07:15:00.714Z,17.02
2023-05-05T07:17:31.493Z,17.19
2023-05-05T07:19:59.785Z,17.34
2023-05-05T07:22:27.977Z,17.45
2023-05-05T07:24:57.536Z,17.47
2023-05-05T07:27:26.079Z,17.31
2023-05-05T07:29:54.252Z,17.22
2023-05-05T07:32:22.593Z,17.48
2023-05-05T07:34:50.900Z,17.70
2023-05-05T07:37:19.097Z,17.94
2023-05-05T07:39:48.878Z,18.07
2023-05-05T07:42:18.536Z,18.24
2023-05-05T07:44:46.815Z,18.41
2023-05-05T07:47:14.996Z,18.49
2023-05-05T07:49:43.247Z,18.53
2023-05-05T07:52:11.558Z,18.68
2023-05-05T07:54:39.744Z,18.56
2023-05-05T07:57:07.884Z,18.56
2023-05-05T07:59:38.678Z,18.70
2023-05-05T08:02:06.985Z,18.82
2023-05-05T08:04:35.235Z,18.79
2023-05-05T08:07:03.543Z,18.96
2023-05-05T08:09:31.775Z,18.50
2023-05-05T08:11:59.905Z,19.00
2023-05-05T08:14:28.064Z,18.88
2023-05-05T08:16:57.903Z,18.81
2023-05-05T08:19:29.404Z,18.59
2023-05-05T08:21:58.922Z,18.79
2023-05-05T08:24:29.370Z,18.78
2023-05-05T08:26:57.900Z,18.95
2023-05-05T08:29:26.108Z,18.44
2023-05-05T08:31:54.592Z,19.06
2023-05-05T08:34:24.237Z,19.30
2023-05-05T08:36:52.552Z,19.34
2023-05-05T08:39:20.821Z,19.59
2023-05-05T08:41:49.183Z,19.64
2023-05-05T08:44:17.384Z,19.73
2023-05-05T08:46:45.832Z,19.71
2023-05-05T08:49:17.042Z,19.51
2023-05-05T08:51:47.980Z,19.44
2023-05-05T08:54:20.331Z,19.55
2023-05-05T08:56:52.335Z,19.43
2023-05-05T08:59:24.285Z,19.78
2023-05-05T09:01:54.555Z,19.86
2023-05-05T09:04:23.366Z,19.79
2023-05-05T09:06:53.046Z,19.89
2023-05-05T09:09:21.887Z,20.12
2023-05-05T09:11:52.917Z,20.25
2023-05-05T09:14:21.133Z,20.39
2023-05-05T09:16:49.337Z,20.42
2023-05-05T09:19:17.492Z,20.48
2023-05-05T09:21:49.910Z,20.72
2023-05-05T09:24:19.773Z,20.85
2023-05-05T09:26:50.014Z,20.70
2023-05-05T09:29:21.571Z,20.66
2023-05-05T09:32:05.849Z,20.86
2023-05-05T09:34:35.682Z,20.91
2023-05-05T09:37:03.928Z,20.85
2023-05-05T09:39:33.575Z,20.79
2023-05-05T09:42:03.517Z,20.95
2023-05-05T09:44:36.165Z,21.01
2023-05-05T09:47:09.497Z,21.12
2023-05-05T09:49:43.249Z,21.11
2023-05-05T09:52:16.057Z,21.17
2023-05-05T09:54:46.059Z,21.20
2023-05-05T09:57:26.940Z,21.24
2023-05-05T09:59:59.518Z,20.83
2023-05-05T10:02:35.846Z,21.46
2023-05-05T10:05:07.189Z,20.98
2023-05-05T10:07:36.206Z,21.78
2023-05-05T10:10:08.287Z,21.77
2023-05-05T10:12:37.878Z,21.83
2023-05-05T10:15:07.522Z,21.90
2023-05-05T10:17:38.484Z,21.94
2023-05-05T10:20:11.703Z,22.09
2023-05-05T10:22:42.883Z,22.19
2023-05-05T10:25:14.435Z,22.26
2023-05-05T10:27:46.168Z,22.15
2023-05-05T10:30:21.918Z,21.99
2023-05-05T10:33:04.379Z,21.94
2023-05-05T10:35:41.789Z,21.93
2023-05-05T10:38:10.462Z,22.10
2023-05-05T10:40:41.264Z,22.14
2023-05-05T10:43:09.560Z,22.21
2023-05-05T10:45:38.785Z,22.33
2023-05-05T10:48:11.801Z,22.49
2023-05-05T10:50:45.977Z,22.24
2023-05-05T10:53:20.323Z,22.57
2023-05-05T10:55:56.220Z,22.32
2023-05-05T10:58:43.668Z,22.17
2023-05-05T11:01:30.570Z,21.51
2023-05-05T11:04:18.320Z,21.94
2023-05-05T11:07:22.543Z,22.09
2023-05-05T11:10:01.263Z,22.28
2023-05-05T11:12:31.068Z,22.20
2023-05-05T11:15:38.051Z,22.41
2023-05-05T11:18:08.406Z,22.60
2023-05-05T11:21:07.463Z,22.75
2023-05-05T11:23:35.809Z,22.67
2023-05-05T11:26:04.329Z,22.31
2023-05-05T11:28:34.152Z,22.32
2023-05-05T11:31:19.447Z,22.67
2023-05-05T11:33:48.017Z,22.41
2023-05-05T11:36:17.054Z,22.56
2023-05-05T11:39:03.453Z,22.68
2023-05-05T11:41:54.322Z,22.89
2023-05-05T11:44:31.917Z,23.19
2023-05-05T11:47:31.227Z,23.37
2023-05-05T11:49:59.632Z,23.59
2023-05-05T11:52:31.437Z,23.71
2023-05-05T11:55:03.887Z,23.89
2023-05-05T11:57:32.491Z,24.03
2023-05-05T12:00:04.003Z,24.03
2023-05-05T12:02:32.703Z,24.20
2023-05-05T12:05:02.072Z,24.21
2023-05-05T12:07:31.713Z,24.17
2023-05-05T12:10:00.254Z,24.44
2023-05-05T12:12:40.176Z,24.58
2023-05-05T12:15:11.557Z,24.40
2023-05-05T12:17:42.881Z,24.16
2023-05-05T12:20:12.642Z,24.26
2023-05-05T12:22:41.605Z,24.32
2023-05-05T12:25:10.650Z,24.14
2023-05-05T12:27:39.046Z,24.73
2023-05-05T12:30:19.886Z,24.78
2023-05-05T12:32:48.222Z,24.77
2023-05-05T12:35:17.199Z,24.73
2023-05-05T12:37:45.710Z,24.78
2023-05-05T12:40:44.105Z,24.91
2023-05-05T12:43:23.756Z,25.18
2023-05-05T12:46:02.171Z,25.28
2023-05-05T12:48:30.868Z,25.36
2023-05-05T12:51:15.258Z,25.49
2023-05-05T12:53:43.836Z,25.70
2023-05-05T12:56:31.259Z,25.69
2023-05-05T12:58:59.758Z,26.15
2023-05-05T13:01:29.931Z,25.84
2023-05-05T13:04:09.730Z,26.09
2023-05-05T13:06:38.815Z,26.03
2023-05-05T13:09:07.719Z,25.85
2023-05-05T13:11:39.452Z,25.54
2023-05-05T13:14:09.284Z,25.34
2023-05-05T13:16:38.915Z,25.70
2023-05-05T13:19:07.088Z,26.21
2023-05-05T13:21:35.373Z,26.29
2023-05-05T13:26:34.927Z,27.00
2023-05-05T13:29:03.125Z,27.49
2023-05-05T13:31:31.560Z,27.63
2023-05-05T13:34:01.183Z,27.85
2023-05-05T13:36:29.381Z,28.02
2023-05-05T13:38:57.602Z,27.82
2023-05-05T13:41:25.981Z,27.81
2023-05-05T13:43:54.537Z,28.01
2023-05-05T13:46:22.707Z,28.34
2023-05-05T13:48:55.967Z,28.29
2023-05-05T13:51:26.102Z,27.99
2023-05-05T13:53:54.327Z,28.20
2023-05-05T13:56:26.215Z,28.48
2023-05-05T13:58:54.635Z,28.56
2023-05-05T14:01:22.963Z,28.41
2023-05-05T14:03:51.310Z,28.50
2023-05-05T14:06:19.602Z,28.04
2023-05-05T14:08:49.200Z,28.10
2023-05-05T14:11:18.295Z,28.14
2023-05-05T14:13:48.222Z,27.99
2023-05-05T14:16:18.065Z,28.88
2023-05-05T14:18:46.315Z,28.88
2023-05-05T14:21:14.483Z,29.37
2023-05-05T14:23:42.647Z,28.96
2023-05-05T14:26:12.306Z,29.96
2023-05-05T14:28:40.439Z,30.35
2023-05-05T14:31:08.622Z,30.45
2023-05-05T14:33:36.779Z,30.31
2023-05-05T14:36:05.257Z,30.06
2023-05-05T14:38:33.517Z,30.07
2023-05-05T14:41:01.699Z,30.05
2023-05-05T14:43:31.339Z,30.08
2023-05-05T14:46:00.579Z,29.89
2023-05-05T14:48:29.315Z,30.22
2023-05-05T14:50:57.567Z,30.63
2023-05-05T14:53:25.847Z,31.04
2023-05-05T14:55:54.070Z,31.42
2023-05-05T14:58:24.582Z,31.52
2023-05-05T15:00:54.702Z,31.61
2023-05-05T15:03:23.022Z,31.42
2023-05-05T15:05:51.310Z,31.00
2023-05-05T15:08:19.935Z,31.29
2023-05-05T15:10:48.190Z,31.65
2023-05-05T15:13:17.375Z,31.61
2023-05-05T15:15:45.727Z,31.81
2023-05-05T15:18:15.497Z,32.17
2023-05-05T15:20:43.780Z,32.58
2023-05-05T15:23:11.985Z,32.66
2023-05-05T15:25:40.375Z,32.80
2023-05-05T15:28:08.661Z,33.29
2023-05-05T15:30:37.015Z,33.50
2023-05-05T15:33:05.328Z,33.81
2023-05-05T15:35:36.271Z,33.96
2023-05-05T15:38:04.744Z,34.33
2023-05-05T15:40:33.098Z,34.61
2023-05-05T15:43:01.375Z,35.06
2023-05-05T15:45:29.601Z,35.60
2023-05-05T15:47:57.919Z,36.38
2023-05-05T15:50:26.210Z,37.45
2023-05-05T15:52:57.484Z,38.25
2023-05-05T15:55:25.903Z,39.02
2023-05-05T15:57:54.447Z,39.44
2023-05-05T16:00:23.225Z,40.03
2023-05-05T16:02:51.713Z,40.07
2023-05-05T16:05:22.790Z,40.60
2023-05-05T16:07:52.651Z,40.06
2023-05-05T16:10:22.758Z,38.42
2023-05-05T16:12:52.277Z,39.26
2023-05-05T16:15:20.822Z,39.42
2023-05-05T16:17:49.124Z,40.14
2023-05-05T16:20:17.505Z,40.32
2023-05-05T16:22:45.916Z,40.61
2023-05-05T16:25:17.720Z,40.76
2023-05-05T16:27:47.495Z,40.24
2023-05-05T16:30:16.663Z,39.41
2023-05-05T16:32:45.259Z,39.22
2023-05-05T16:35:13.508Z,38.86
2023-05-05T16:37:41.735Z,38.36
2023-05-05T16:40:11.210Z,36.49
2023-05-05T16:42:39.599Z,34.95
2023-05-05T16:45:10.790Z,33.40
2023-05-05T16:47:39.214Z,30.80
2023-05-05T16:50:08.658Z,31.06
2023-05-05T16:52:36.970Z,30.11
2023-05-05T16:55:05.722Z,29.34
2023-05-05T16:57:33.883Z,28.60
2023-05-05T17:00:02.060Z,27.89
2023-05-05T17:02:31.807Z,26.99
2023-05-05T17:05:00.265Z,26.72
2023-05-05T17:07:28.668Z,26.39
2023-05-05T17:09:56.918Z,25.96
2023-05-05T17:12:25.147Z,25.41
2023-05-05T17:14:53.403Z,25.43
2023-05-05T17:17:21.631Z,25.03
2023-05-05T17:19:51.561Z,24.94
2023-05-05T17:22:19.732Z,24.67
2023-05-05T17:24:48.992Z,24.41
2023-05-05T17:27:17.560Z,24.36
2023-05-05T17:29:45.923Z,24.05
2023-05-05T17:32:14.222Z,23.64
2023-05-05T17:34:42.532Z,22.19
2023-05-05T17:37:12.298Z,23.14
2023-05-05T17:39:40.655Z,22.87
2023-05-05T17:42:09.129Z,22.83
2023-05-05T17:44:37.295Z,22.50
2023-05-05T17:47:07.843Z,22.52
2023-05-05T17:49:36.111Z,22.37
2023-05-05T17:52:04.448Z,22.20
2023-05-05T17:54:34.174Z,22.13
2023-05-05T17:57:02.539Z,22.00
2023-05-05T17:59:32.618Z,21.90
2023-05-05T18:02:01.045Z,21.67
2023-05-05T18:04:57.403Z,21.61
2023-05-05T18:07:40.971Z,21.26
2023-05-05T18:11:01.051Z,21.38
2023-05-05T18:14:03.284Z,21.26
2023-05-05T18:17:28.320Z,21.13
2023-05-05T18:24:55.359Z,20.90
2023-05-05T18:27:55.933Z,20.46
2023-05-05T18:30:24.120Z,20.58
2023-05-05T18:32:52.328Z,20.44
2023-05-05T18:35:21.573Z,20.23
2023-05-05T18:37:49.956Z,20.24
2023-05-05T18:40:18.350Z,20.10
2023-05-05T18:42:46.593Z,20.14
2023-05-05T18:45:16.324Z,19.47
2023-05-05T18:47:44.570Z,19.78
2023-05-05T18:50:13.103Z,19.81
2023-05-05T18:52:41.333Z,19.76
2023-05-05T18:55:10.371Z,19.63
2023-05-05T18:57:38.763Z,19.48
2023-05-05T19:00:08.420Z,19.35
2023-05-05T19:02:38.130Z,19.41
2023-05-05T19:05:07.600Z,19.35
2023-05-05T19:07:36.864Z,19.37
2023-05-05T19:10:05.693Z,19.32
2023-05-05T19:12:33.965Z,19.00
2023-05-05T19:15:02.190Z,19.04
2023-05-05T19:17:30.511Z,19.03
2023-05-05T19:20:00.245Z,19.04
2023-05-05T19:22:28.874Z,18.86
2023-05-05T19:24:57.129Z,18.85
2023-05-05T19:27:25.410Z,18.82
2023-05-05T19:29:53.673Z,18.77
2023-05-05T19:32:22.740Z,18.44
2023-05-05T19:34:54.400Z,18.72
2023-05-05T19:37:24.151Z,18.56
2023-05-05T19:39:52.355Z,17.94
2023-05-05T19:42:20.885Z,18.27
2023-05-05T19:44:49.131Z,18.57
2023-05-05T19:47:18.082Z,18.51
2023-05-05T19:49:46.300Z,18.40
2023-05-05T19:52:14.491Z,18.49
2023-05-05T19:54:44.075Z,18.46
2023-05-05T19:57:12.719Z,18.50
2023-05-05T19:59:41.811Z,18.46
2023-05-05T20:02:11.626Z,18.47
2023-05-05T20:04:39.891Z,18.26
2023-05-05T20:07:08.028Z,18.33
2023-05-05T20:09:37.805Z,18.32
2023-05-05T20:12:08.399Z,18.28
2023-05-05T20:14:36.961Z,18.29
2023-05-05T20:17:05.346Z,18.14
2023-05-05T20:19:33.677Z,18.13
2023-05-05T20:22:01.937Z,18.16
2023-05-05T20:24:30.182Z,17.90
2023-05-05T20:26:58.592Z,17.74
2023-05-05T20:29:28.301Z,17.96
2023-05-05T20:31:56.550Z,17.93
2023-05-05T20:34:25.486Z,17.75
2023-05-05T20:36:54.297Z,17.90
2023-05-05T20:39:22.744Z,17.91
2023-05-05T20:41:51.075Z,17.85
2023-05-05T20:44:19.911Z,17.67
2023-05-05T20:46:50.543Z,17.77
2023-05-05T20:49:18.874Z,17.58
2023-05-05T20:51:47.196Z,17.81
2023-05-05T20:54:15.427Z,17.45
2023-05-05T20:56:43.676Z,17.79
2023-05-05T20:59:12.160Z,17.67
2023-05-05T21:01:41.616Z,17.49
2023-05-05T21:04:11.418Z,17.45
2023-05-05T21:06:39.737Z,17.52
2023-05-05T21:09:08.034Z,17.58
2023-05-05T21:11:36.339Z,17.39
2023-05-05T21:14:06.097Z,16.92
2023-05-05T21:16:34.350Z,17.46
2023-05-05T21:19:02.532Z,17.23
2023-05-05T21:21:32.112Z,17.29
2023-05-05T21:24:00.313Z,17.27
2023-05-05T21:26:28.645Z,17.24
2023-05-05T21:28:56.808Z,16.90
2023-05-05T21:31:25.141Z,16.30
2023-05-05T21:33:54.330Z,17.19
2023-05-05T21:36:22.611Z,17.14
2023-05-05T21:38:55.663Z,17.04
2023-05-05T21:41:24.648Z,16.99
2023-05-05T21:43:52.878Z,16.87
2023-05-05T21:46:21.191Z,17.00
2023-05-05T21:48:49.393Z,16.94
2023-05-05T21:51:17.670Z,17.15
2023-05-05T21:53:46.310Z,17.02
2023-05-05T21:56:15.945Z,16.77
2023-05-05T21:58:44.676Z,16.96
2023-05-05T22:01:13.497Z,16.28
2023-05-05T22:03:43.634Z,16.90
2023-05-05T22:06:12.486Z,16.91
2023-05-05T22:08:40.603Z,16.91
2023-05-05T22:11:08.821Z,16.87
2023-05-05T22:13:39.136Z,16.87
2023-05-05T22:16:07.940Z,16.74
2023-05-05T22:18:36.430Z,16.49
2023-05-05T22:21:05.340Z,16.53
2023-05-05T22:23:33.716Z,16.42
2023-05-05T22:26:02.045Z,16.53
2023-05-05T22:28:30.478Z,16.47
2023-05-05T22:31:00.288Z,16.42
2023-05-05T22:33:28.721Z,16.29
2023-05-05T22:35:57.040Z,16.19
2023-05-05T22:38:25.334Z,16.24
2023-05-05T22:40:53.610Z,15.84
2023-05-05T22:43:21.868Z,16.36
2023-05-05T22:45:50.132Z,16.31
2023-05-05T22:48:19.749Z,15.73
2023-05-05T22:50:48.011Z,16.22
2023-05-05T22:53:16.151Z,16.13
2023-05-05T22:55:44.533Z,15.91
2023-05-05T22:58:12.734Z,16.06
2023-05-05T23:00:41.103Z,16.10
2023-05-05T23:03:09.920Z,16.06
2023-05-05T23:05:39.564Z,16.08
2023-05-05T23:08:07.955Z,16.00
2023-05-05T23:10:36.173Z,15.69
2023-05-05T23:13:04.519Z,15.86
2023-05-05T23:15:32.872Z,15.75
2023-05-05T23:18:01.153Z,15.69
2023-05-05T23:20:29.701Z,15.72
2023-05-05T23:22:59.298Z,15.62
2023-05-05T23:25:27.594Z,15.36
2023-05-05T23:27:56.139Z,15.67
2023-05-05T23:30:24.303Z,15.45
2023-05-05T23:32:52.718Z,15.53
2023-05-05T23:35:21.578Z,15.46
2023-05-05T23:37:50.100Z,15.66
2023-05-05T23:40:19.848Z,15.50
2023-05-05T23:42:48.137Z,15.50
2023-05-05T23:45:19.190Z,15.25
2023-05-05T23:47:47.826Z,15.33
2023-05-05T23:50:16.050Z,15.34
2023-05-05T23:52:44.489Z,15.22
2023-05-05T23:55:12.773Z,15.38
2023-05-05T23:57:42.364Z,15.33
